Time;durP1;ratioP1;P1;durP2;ratioP2;P2;SDS_P1;SDS_P2;PMS_P1;PMS_P2;Temp;Humidity;BMP_temperature;BMP_pressure;BME280_temperature;BME280_humidity;BME280_pressure;Samples;Min_cycle;Max_cycle;Signal;HPM_P1;HPM_P2
2022/10/22 00:02:30;;;;;;;0.50;0.50;;;13.70;99.90;;;;;;5024596;27;20062;-89
2022/10/22 00:05:22;;;;;;;0.50;0.50;;;13.60;99.90;;;;;;5025353;27;20401;-88
2022/10/22 00:07:51;;;;;;;0.40;0.40;;;13.60;99.90;;;;;;5056517;27;20117;-86
2022/10/22 00:13:51;;;;;;;0.50;0.50;;;13.50;99.90;;;;;;5022719;27;20108;-86
2022/10/22 00:16:34;;;;;;;0.50;0.50;;;13.50;99.90;;;;;;5047992;27;20584;-88
2022/10/22 00:19:43;;;;;;;0.50;0.50;;;13.50;99.90;;;;;;5049134;27;20277;-88
2022/10/22 00:25:14;;;;;;;0.50;0.50;;;13.50;99.90;;;;;;5035331;27;20043;-87
2022/10/22 00:28:06;;;;;;;0.50;0.50;;;13.60;99.90;;;;;;5016200;27;20127;-86
2022/10/22 00:30:40;;;;;;;0.50;0.50;;;13.50;99.90;;;;;;5055033;27;20986;-86
2022/10/22 00:33:20;;;;;;;0.43;0.43;;;13.50;99.90;;;;;;5023555;27;20067;-85
2022/10/22 00:35:58;;;;;;;0.50;0.50;;;13.50;99.90;;;;;;5031651;27;20146;-85
2022/10/22 00:38:29;;;;;;;0.40;0.40;;;13.40;99.90;;;;;;5028106;27;20049;-87
2022/10/22 00:41:05;;;;;;;0.50;0.50;;;13.50;99.90;;;;;;5056813;27;20398;-88
2022/10/22 00:43:54;;;;;;;0.50;0.50;;;13.40;99.90;;;;;;5037855;27;20664;-88
2022/10/22 00:46:49;;;;;;;;;;;;;;;;;;;;;
2022/10/22 00:49:52;;;;;;;0.50;0.50;;;13.40;99.90;;;;;;5054190;27;20131;-88
2022/10/22 00:52:33;;;;;;;0.50;0.50;;;13.40;99.90;;;;;;5024274;27;20051;-86
2022/10/22 00:55:05;;;;;;;0.50;0.50;;;13.40;99.90;;;;;;5030099;27;20504;-85
2022/10/22 00:57:35;;;;;;;0.50;0.50;;;13.30;99.90;;;;;;5034829;27;20970;-85
2022/10/22 01:00:13;;;;;;;0.50;0.50;;;13.30;99.90;;;;;;5047118;27;20241;-86
2022/10/22 01:06:03;;;;;;;0.50;0.50;;;13.30;99.90;;;;;;5016203;27;20046;-85
2022/10/22 01:09:10;;;;;;;0.50;0.50;;;13.20;99.90;;;;;;5038047;27;20334;-87
2022/10/22 01:12:09;;;;;;;0.50;0.50;;;13.30;99.90;;;;;;5027897;27;20043;-85
2022/10/22 01:14:57;;;;;;;0.50;0.50;;;13.40;99.90;;;;;;5032805;27;20051;-85
2022/10/22 01:17:53;;;;;;;0.50;0.50;;;13.30;99.90;;;;;;5049056;27;20047;-86
2022/10/22 01:21:03;;;;;;;0.50;0.50;;;13.30;99.90;;;;;;5048797;27;20050;-87
2022/10/22 01:23:42;;;;;;;0.50;0.50;;;13.30;99.90;;;;;;5029997;27;20322;-86
2022/10/22 01:26:53;;;;;;;0.50;0.50;;;13.10;99.90;;;;;;5028017;27;20054;-86
2022/10/22 01:29:37;;;;;;;0.50;0.50;;;13.20;99.90;;;;;;5044047;27;20050;-86
2022/10/22 01:32:27;;;;;;;0.50;0.50;;;13.10;99.90;;;;;;5031806;27;20074;-85
2022/10/22 01:35:46;;;;;;;;;;;;;;;;;;;;;
2022/10/22 01:38:24;;;;;;;0.50;0.50;;;13.10;99.90;;;;;;5054184;27;20175;-89
2022/10/22 01:41:30;;;;;;;0.50;0.50;;;13.10;99.90;;;;;;5040845;27;20885;-86
2022/10/22 01:44:08;;;;;;;0.50;0.50;;;13.00;99.90;;;;;;5031878;27;20158;-87
2022/10/22 01:46:40;;;;;;;0.50;0.50;;;13.10;99.90;;;;;;5051343;27;20046;-86
2022/10/22 01:49:54;;;;;;;0.50;0.50;;;13.00;99.90;;;;;;5052841;27;20047;-87
2022/10/22 01:52:39;;;;;;;0.50;0.50;;;13.20;99.90;;;;;;5037196;27;20998;-86
2022/10/22 01:55:32;;;;;;;0.50;0.50;;;13.10;99.90;;;;;;5056336;27;20059;-87
2022/10/22 01:58:49;;;;;;;0.50;0.50;;;13.20;99.90;;;;;;5021365;27;20066;-85
2022/10/22 02:01:52;;;;;;;0.50;0.50;;;13.10;99.90;;;;;;4995319;28;20063;-85
2022/10/22 02:04:42;;;;;;;0.50;0.50;;;13.30;99.90;;;;;;5016354;28;20401;-85
2022/10/22 02:07:43;;;;;;;0.50;0.50;;;13.20;99.90;;;;;;5030605;28;20119;-86
2022/10/22 02:10:39;;;;;;;;;;;;;;;;;;;;;
2022/10/22 02:13:57;;;;;;;0.50;0.50;;;12.80;99.90;;;;;;5033311;28;20058;-86
2022/10/22 02:17:00;;;;;;;0.50;0.50;;;13.00;99.90;;;;;;5006571;28;20055;-86
2022/10/22 02:19:44;;;;;;;0.50;0.50;;;12.80;99.90;;;;;;5033125;28;20131;-86
2022/10/22 02:22:36;;;;;;;0.50;0.50;;;12.80;99.90;;;;;;5019909;28;20122;-87
2022/10/22 02:25:50;;;;;;;0.50;0.50;;;12.80;99.90;;;;;;5012932;28;20174;-88
2022/10/22 02:28:11;;;;;;;0.50;0.50;;;12.80;99.90;;;;;;5031770;28;20622;-87
2022/10/22 02:31:13;;;;;;;;;;;;;;;;;;;;;
2022/10/22 02:34:09;;;;;;;0.50;0.50;;;12.80;99.90;;;;;;5036704;28;20108;-88
2022/10/22 02:36:40;;;;;;;0.50;0.50;;;12.90;99.90;;;;;;5048484;27;20055;-88
2022/10/22 02:39:19;;;;;;;0.50;0.50;;;12.60;99.90;;;;;;5007853;28;20059;-87
2022/10/22 02:41:46;;;;;;;0.50;0.50;;;12.30;99.90;;;;;;5022022;28;20078;-87
2022/10/22 02:44:20;;;;;;;0.50;0.50;;;12.70;99.90;;;;;;4979830;28;20150;-87
2022/10/22 02:46:47;;;;;;;0.50;0.50;;;12.50;99.90;;;;;;4998575;28;20453;-89
2022/10/22 02:49:22;;;;;;;0.50;0.50;;;12.40;99.90;;;;;;4951870;28;20276;-88
2022/10/22 02:52:28;;;;;;;0.50;0.50;;;12.50;99.90;;;;;;4951270;28;20382;-87
2022/10/22 02:58:12;;;;;;;0.50;0.50;;;12.20;99.90;;;;;;4915427;28;20578;-88
2022/10/22 03:00:40;;;;;;;0.50;0.50;;;12.20;99.90;;;;;;4993987;28;20056;-87
2022/10/22 03:03:09;;;;;;;0.50;0.50;;;12.50;99.90;;;;;;4985244;28;20056;-86
2022/10/22 03:05:43;;;;;;;0.50;0.50;;;12.80;99.90;;;;;;4995038;28;20513;-87
2022/10/22 03:08:50;;;;;;;0.50;0.50;;;12.80;99.90;;;;;;4956571;28;20048;-89
2022/10/22 03:11:56;;;;;;;0.50;0.50;;;13.00;99.90;;;;;;4965651;28;20074;-86
2022/10/22 03:14:33;;;;;;;0.50;0.50;;;12.90;99.90;;;;;;4940418;28;20091;-87
2022/10/22 03:17:08;;;;;;;0.50;0.50;;;12.90;99.90;;;;;;5012282;28;20043;-85
2022/10/22 03:19:46;;;;;;;0.50;0.50;;;12.90;99.90;;;;;;5001192;28;20089;-90
2022/10/22 03:23:17;;;;;;;0.50;0.50;;;13.10;99.90;;;;;;5009075;28;20131;-89
2022/10/22 03:25:50;;;;;;;0.50;0.50;;;12.90;99.90;;;;;;4941014;28;20077;-88
2022/10/22 03:28:25;;;;;;;0.50;0.50;;;12.80;99.90;;;;;;5021210;28;20044;-87
2022/10/22 03:31:19;;;;;;;0.50;0.50;;;12.80;99.90;;;;;;5012698;28;20825;-87
2022/10/22 03:34:05;;;;;;;0.50;0.50;;;13.00;99.90;;;;;;5003343;28;20422;-87
2022/10/22 03:40:03;;;;;;;0.50;0.50;;;12.80;99.90;;;;;;5017475;28;20055;-86
2022/10/22 03:42:42;;;;;;;0.50;0.50;;;12.60;99.90;;;;;;4996458;28;20058;-84
2022/10/22 03:45:09;;;;;;;0.50;0.50;;;12.80;99.90;;;;;;4993035;28;20599;-85
2022/10/22 03:47:40;;;;;;;0.50;0.50;;;12.90;99.90;;;;;;5004819;28;20212;-85
2022/10/22 03:50:17;;;;;;;0.50;0.50;;;12.70;99.90;;;;;;5024344;28;20044;-87
2022/10/22 03:56:33;;;;;;;0.50;0.50;;;12.90;99.90;;;;;;5002825;28;20105;-89
2022/10/22 03:59:17;;;;;;;;;;;;;;;;;;;;;
2022/10/22 04:01:49;;;;;;;0.50;0.50;;;12.90;99.90;;;;;;5057956;28;20047;-86
2022/10/22 04:04:18;;;;;;;0.50;0.50;;;12.80;99.90;;;;;;5043700;28;20051;-87
2022/10/22 04:06:53;;;;;;;0.50;0.50;;;12.80;99.90;;;;;;5031345;28;20055;-87
2022/10/22 04:09:59;;;;;;;0.50;0.50;;;13.10;99.90;;;;;;5019211;28;20405;-86
2022/10/22 04:12:29;;;;;;;0.50;0.50;;;13.00;99.90;;;;;;5041627;28;20055;-86
2022/10/22 04:15:15;;;;;;;0.50;0.50;;;13.00;99.90;;;;;;5047059;28;20237;-86
2022/10/22 04:18:03;;;;;;;0.50;0.50;;;13.00;99.90;;;;;;5048280;28;20047;-87
2022/10/22 04:20:44;;;;;;;0.50;0.50;;;12.70;99.90;;;;;;5060463;28;20053;-85
2022/10/22 04:23:33;;;;;;;0.50;0.50;;;12.90;99.90;;;;;;5029007;28;20035;-87
2022/10/22 04:26:07;;;;;;;0.50;0.50;;;12.80;99.90;;;;;;4992633;27;20138;-86
2022/10/22 04:28:56;;;;;;;0.50;0.50;;;12.80;99.90;;;;;;5023530;27;20043;-87
2022/10/22 04:31:40;;;;;;;0.50;0.50;;;12.80;99.90;;;;;;5053696;27;20504;-86
2022/10/22 04:34:24;;;;;;;0.50;0.50;;;12.80;99.90;;;;;;5037372;27;20047;-86
2022/10/22 04:36:55;;;;;;;0.50;0.50;;;12.80;99.90;;;;;;5011987;27;20900;-87
2022/10/22 04:39:21;;;;;;;0.50;0.50;;;12.60;99.90;;;;;;5018589;27;20161;-86
2022/10/22 04:42:06;;;;;;;0.50;0.50;;;12.80;99.90;;;;;;5036240;27;20035;-87
2022/10/22 04:44:55;;;;;;;0.50;0.50;;;12.60;99.90;;;;;;5057883;27;20066;-87
2022/10/22 04:48:05;;;;;;;0.50;0.50;;;12.50;99.90;;;;;;5044089;27;22658;-85
2022/10/22 04:51:12;;;;;;;;;;;;;;;;;;;;;
2022/10/22 04:54:05;;;;;;;0.50;0.50;;;12.60;99.90;;;;;;5020475;27;20051;-86
2022/10/22 04:56:40;;;;;;;0.50;0.50;;;12.70;99.90;;;;;;4964088;27;20581;-85
2022/10/22 04:59:16;;;;;;;0.50;0.50;;;12.80;99.90;;;;;;5042866;27;20236;-85
2022/10/22 05:02:17;;;;;;;0.50;0.50;;;12.90;99.90;;;;;;5038602;27;20462;-87
2022/10/22 05:05:12;;;;;;;0.50;0.50;;;13.00;99.90;;;;;;5031754;27;20058;-87
2022/10/22 05:15:21;;;;;;;0.50;0.50;;;12.80;99.90;;;;;;4994270;28;20062;-87
2022/10/22 05:18:38;;;;;;;0.50;0.50;;;12.80;99.90;;;;;;4973608;28;20054;-86
2022/10/22 05:21:01;;;;;;;0.50;0.50;;;12.80;99.90;;;;;;4958377;28;20110;-87
2022/10/22 05:24:20;;;;;;;0.50;0.50;;;12.90;99.90;;;;;;4927307;28;20201;-87
2022/10/22 05:27:42;;;;;;;0.50;0.50;;;12.80;99.90;;;;;;4940948;28;20840;-87
2022/10/22 05:30:51;;;;;;;;;;;;;;;;;;;;;
2022/10/22 05:41:07;;;;;;;0.50;0.50;;;12.70;99.90;;;;;;4842517;29;20197;-87
2022/10/22 05:44:44;;;;;;;;;;;;;;;;;;;;;
2022/10/22 05:47:16;;;;;;;0.50;0.50;;;13.00;99.90;;;;;;4854723;28;20052;-88
2022/10/22 05:49:52;;;;;;;0.50;0.50;;;13.10;99.90;;;;;;4914439;28;20108;-86
2022/10/22 05:52:43;;;;;;;0.50;0.50;;;13.00;99.90;;;;;;4936573;28;20056;-89
2022/10/22 05:55:57;;;;;;;;;;;;;;;;;;;;;
2022/10/22 05:58:47;;;;;;;0.50;0.50;;;13.20;99.90;;;;;;4966865;28;20397;-87
2022/10/22 06:01:26;;;;;;;0.50;0.50;;;13.20;99.90;;;;;;5005214;28;20055;-88
2022/10/22 06:04:16;;;;;;;0.50;0.50;;;13.20;99.90;;;;;;4991935;28;20056;-91
2022/10/22 06:07:34;;;;;;;;;;;;;;;;;;;;;
2022/10/22 06:21:18;;;;;;;0.50;0.50;;;13.30;99.90;;;;;;4972900;28;20974;-87
2022/10/22 06:24:04;;;;;;;0.50;0.50;;;13.30;99.90;;;;;;4959387;28;20995;-87
2022/10/22 06:26:53;;;;;;;0.50;0.50;;;13.40;99.90;;;;;;4933293;28;20516;-91
2022/10/22 06:33:40;;;;;;;;;;;;;;;;;;;;;
2022/10/22 06:36:54;;;;;;;0.50;0.50;;;13.50;99.90;;;;;;4872224;29;20095;-96
2022/10/22 06:40:32;;;;;;;0.60;0.60;;;13.60;99.90;;;;;;4888087;28;20061;-92
2022/10/22 06:43:51;;;;;;;;;;;;;;;;;;;;;
2022/10/22 06:46:30;;;;;;;0.50;0.50;;;13.70;99.90;;;;;;5004176;28;20596;-88
2022/10/22 06:52:29;;;;;;;0.50;0.50;;;13.80;99.90;;;;;;4988694;28;20056;-92
2022/10/22 06:54:58;;;;;;;0.50;0.50;;;13.80;99.90;;;;;;4980932;28;20052;-87
2022/10/22 06:57:42;;;;;;;;;;;;;;;;;;;;;
2022/10/22 07:00:25;;;;;;;0.50;0.50;;;13.90;99.90;;;;;;5010200;28;20078;-86
2022/10/22 07:03:01;;;;;;;0.50;0.50;;;13.90;99.90;;;;;;5025142;27;20051;-86
2022/10/22 07:06:23;;;;;;;;;;;;;;;;;;;;;
2022/10/22 07:08:59;;;;;;;0.50;0.50;;;13.90;99.90;;;;;;5050558;27;20583;-82
2022/10/22 07:11:51;;;;;;;;;;;14.00;99.90;;;;;;5067247;27;20051;-90
2022/10/22 07:14:32;;;;;;;0.50;0.50;;;14.00;99.90;;;;;;5028865;27;19927;-89
2022/10/22 07:17:25;;;;;;;0.50;0.50;;;14.10;99.90;;;;;;5060074;27;20042;-91
2022/10/22 07:20:27;;;;;;;;;;;;;;;;;;;;;
2022/10/22 07:23:43;;;;;;;0.50;0.50;;;14.20;99.90;;;;;;5038715;28;20039;-92
2022/10/22 07:26:33;;;;;;;0.40;0.40;;;14.30;99.90;;;;;;5037983;27;20500;-92
2022/10/22 07:29:53;;;;;;;0.40;0.40;;;14.40;99.90;;;;;;5050994;28;20329;-93
2022/10/22 07:32:25;;;;;;;0.40;0.40;;;14.50;99.90;;;;;;5065749;28;20183;-91
2022/10/22 07:34:58;;;;;;;0.50;0.50;;;14.70;99.90;;;;;;5054210;28;20236;-89
2022/10/22 07:37:47;;;;;;;0.50;0.50;;;14.80;99.90;;;;;;5042661;28;20775;-91
2022/10/22 07:40:48;;;;;;;0.40;0.40;;;15.00;99.90;;;;;;5053139;28;20058;-88
2022/10/22 07:44:32;;;;;;;0.50;0.50;;;15.10;99.90;;;;;;5043517;28;20084;-87
2022/10/22 07:47:13;;;;;;;0.50;0.50;;;15.30;99.90;;;;;;5054073;27;20059;-85
2022/10/22 07:53:11;;;;;;;0.50;0.50;;;15.20;99.90;;;;;;5017759;28;20058;-89
2022/10/22 07:58:55;;;;;;;0.50;0.50;;;15.10;99.90;;;;;;5053593;28;19934;-90
2022/10/22 08:02:13;;;;;;;0.50;0.50;;;15.00;99.90;;;;;;5037609;28;20519;-94
2022/10/22 08:05:07;;;;;;;0.50;0.50;;;15.10;99.90;;;;;;5024265;27;20133;-89
2022/10/22 08:07:35;;;;;;;0.50;0.50;;;15.00;99.90;;;;;;5053338;27;20393;-84
2022/10/22 08:10:12;;;;;;;0.50;0.50;;;15.00;99.90;;;;;;5054640;27;20365;-92
2022/10/22 08:13:29;;;;;;;0.50;0.50;;;15.00;99.90;;;;;;5066158;27;20038;-85
2022/10/22 08:22:07;;;;;;;0.40;0.40;;;14.90;99.90;;;;;;5064900;27;20047;-89
2022/10/22 08:24:41;;;;;;;0.50;0.50;;;15.00;99.90;;;;;;5058665;27;20132;-90
2022/10/22 08:27:16;;;;;;;0.50;0.50;;;15.00;99.90;;;;;;5023792;27;20042;-90
2022/10/22 08:30:14;;;;;;;0.50;0.50;;;15.10;99.90;;;;;;5032619;27;20054;-87
2022/10/22 08:32:51;;;;;;;0.50;0.50;;;15.10;99.90;;;;;;5033156;27;20051;-91
2022/10/22 08:38:31;;;;;;;0.50;0.50;;;15.20;99.90;;;;;;5048574;27;20058;-87
2022/10/22 08:41:17;;;;;;;0.50;0.50;;;15.20;99.90;;;;;;5064176;27;20058;-87
2022/10/22 08:44:05;;;;;;;0.43;0.43;;;15.50;99.90;;;;;;5059007;27;20065;-91
2022/10/22 08:46:53;;;;;;;0.50;0.50;;;15.60;99.90;;;;;;5032363;27;20047;-86
2022/10/22 08:52:40;;;;;;;0.50;0.50;;;15.90;99.90;;;;;;5041761;27;20054;-84
2022/10/22 08:58:38;;;;;;;0.40;0.40;;;16.10;99.90;;;;;;5002713;27;20409;-87
2022/10/22 09:01:43;;;;;;;0.50;0.50;;;16.20;99.90;;;;;;5061771;27;20050;-90
2022/10/22 09:08:19;;;;;;;0.50;0.50;;;16.30;99.90;;;;;;5050557;28;19984;-88
2022/10/22 09:14:48;;;;;;;0.40;0.40;;;16.50;99.90;;;;;;5005029;27;20047;-90
2022/10/22 09:25:00;;;;;;;0.40;0.40;;;16.40;99.90;;;;;;5039284;28;20043;-90
2022/10/22 09:28:18;;;;;;;0.45;0.45;;;16.50;99.90;;;;;;5008130;28;20091;-91
2022/10/22 09:31:28;;;;;;;0.40;0.40;;;16.50;99.90;;;;;;4956567;28;20056;-96
2022/10/22 09:34:41;;;;;;;0.50;0.50;;;16.50;99.90;;;;;;5055703;27;20569;-89
2022/10/22 09:37:41;;;;;;;0.50;0.50;;;16.60;99.90;;;;;;5039122;27;20051;-88
2022/10/22 09:40:52;;;;;;;0.50;0.50;;;16.40;99.90;;;;;;5064321;27;20401;-89
2022/10/22 09:43:35;;;;;;;0.40;0.40;;;16.40;99.90;;;;;;5060532;27;20042;-89
2022/10/22 09:46:07;;;;;;;0.40;0.40;;;16.50;99.90;;;;;;5031602;27;20051;-93
2022/10/22 09:48:53;;;;;;;0.40;0.40;;;16.40;99.90;;;;;;5043508;27;20868;-90
2022/10/22 09:52:24;;;;;;;0.40;0.40;;;16.40;99.90;;;;;;5042312;27;20088;-90
2022/10/22 09:58:53;;;;;;;0.50;0.50;;;16.50;99.90;;;;;;5008129;27;20538;-91
2022/10/22 10:01:43;;;;;;;0.50;0.50;;;16.60;99.90;;;;;;5032323;27;20059;-87
2022/10/22 10:07:50;;;;;;;0.50;0.50;;;16.60;99.90;;;;;;5041833;27;20575;-86
2022/10/22 10:11:00;;;;;;;0.47;0.47;;;16.50;99.90;;;;;;5050367;27;20113;-90
2022/10/22 10:14:27;;;;;;;0.40;0.40;;;16.40;99.90;;;;;;4981743;28;20052;-87
2022/10/22 10:17:33;;;;;;;0.50;0.50;;;16.40;99.90;;;;;;4959201;28;20715;-93
2022/10/22 10:20:53;;;;;;;0.50;0.50;;;16.30;99.90;;;;;;4960711;28;20355;-84
2022/10/22 10:23:19;;;;;;;0.50;0.50;;;16.30;99.90;;;;;;4900384;28;20054;-81
2022/10/22 10:26:27;;;;;;;0.50;0.50;;;16.30;99.90;;;;;;4961492;28;20666;-87
2022/10/22 10:29:47;;;;;;;0.50;0.50;;;16.30;99.90;;;;;;4949139;28;20060;-88
2022/10/22 10:32:38;;;;;;;0.50;0.50;;;16.40;99.90;;;;;;4934276;28;20513;-87
2022/10/22 10:35:31;;;;;;;0.50;0.50;;;16.40;99.90;;;;;;4956943;28;20533;-88
2022/10/22 10:38:24;;;;;;;0.50;0.50;;;16.50;99.90;;;;;;4933897;28;20581;-86
2022/10/22 10:41:27;;;;;;;0.50;0.50;;;16.50;99.90;;;;;;4982667;28;20429;-86
2022/10/22 10:44:22;;;;;;;0.50;0.50;;;16.50;99.90;;;;;;4994209;28;20043;-85
2022/10/22 10:47:29;;;;;;;0.50;0.50;;;16.50;99.90;;;;;;5026033;28;20414;-88
2022/10/22 10:53:54;;;;;;;0.50;0.50;;;16.70;99.90;;;;;;5032068;27;20043;-90
2022/10/22 10:56:54;;;;;;;;;;;;;;;;;;;;;
2022/10/22 10:59:41;;;;;;;0.50;0.50;;;16.60;99.90;;;;;;5060507;27;20222;-92
2022/10/22 11:06:47;;;;;;;;;;;;;;;;;;;;;
2022/10/22 11:14:25;;;;;;;0.50;0.50;;;16.30;99.90;;;;;;4936669;28;20082;-90
2022/10/22 11:17:24;;;;;;;0.40;0.40;;;16.30;99.90;;;;;;4904671;28;20054;-87
2022/10/22 11:20:40;;;;;;;;;;;;;;;;;;;;;
2022/10/22 11:24:04;;;;;;;0.50;0.50;;;16.40;99.90;;;;;;4986566;28;20131;-89
2022/10/22 11:27:25;;;;;;;0.40;0.40;;;16.50;99.90;;;;;;4922549;28;20250;-89
2022/10/22 11:30:38;;;;;;;0.50;0.50;;;16.70;99.90;;;;;;4982353;28;20418;-94
2022/10/22 11:33:36;;;;;;;0.50;0.50;;;16.70;99.90;;;;;;4962292;28;20122;-91
2022/10/22 11:36:10;;;;;;;0.50;0.50;;;16.70;99.90;;;;;;4972961;28;20913;-89
2022/10/22 11:39:02;;;;;;;0.50;0.50;;;16.80;99.90;;;;;;4995734;28;20075;-89
2022/10/22 11:41:57;;;;;;;0.40;0.40;;;16.80;99.90;;;;;;4997350;28;20333;-89
2022/10/22 11:44:31;;;;;;;0.50;0.50;;;16.70;99.90;;;;;;4972978;28;20067;-85
2022/10/22 11:48:09;;;;;;;0.40;0.40;;;16.70;99.90;;;;;;4968256;28;20544;-92
2022/10/22 11:57:15;;;;;;;0.50;0.50;;;16.70;99.90;;;;;;4983968;28;20046;-89
2022/10/22 11:59:52;;;;;;;0.40;0.40;;;16.90;99.90;;;;;;5062964;27;20115;-92
2022/10/22 12:02:43;;;;;;;0.40;0.40;;;16.90;99.90;;;;;;5069482;27;20078;-95
2022/10/22 12:06:01;;;;;;;0.40;0.40;;;17.00;99.90;;;;;;5055680;27;20038;-93
2022/10/22 12:08:36;;;;;;;0.50;0.50;;;16.90;99.90;;;;;;5072928;27;20206;-90
2022/10/22 12:11:47;;;;;;;0.40;0.40;;;16.90;99.90;;;;;;5054694;27;20703;-90
2022/10/22 12:14:53;;;;;;;0.50;0.50;;;17.40;99.90;;;;;;5065857;27;20038;-93
2022/10/22 12:17:27;;;;;;;0.50;0.50;;;17.80;99.90;;;;;;5063983;27;20045;-91
2022/10/22 12:20:16;;;;;;;0.40;0.40;;;17.70;99.90;;;;;;5067161;27;20296;-92
2022/10/22 12:22:50;;;;;;;0.50;0.50;;;17.60;99.90;;;;;;5082685;27;20085;-85
2022/10/22 12:25:51;;;;;;;0.50;0.50;;;17.60;99.90;;;;;;5072633;27;20543;-93
2022/10/22 12:28:27;;;;;;;0.50;0.50;;;17.50;99.90;;;;;;5008295;28;20040;-90
2022/10/22 12:31:43;;;;;;;0.50;0.50;;;17.30;99.90;;;;;;4975725;28;20040;-92
2022/10/22 12:34:17;;;;;;;0.50;0.50;;;17.40;99.90;;;;;;4938535;28;20177;-89
2022/10/22 12:37:06;;;;;;;0.50;0.50;;;17.50;99.90;;;;;;4946402;28;20050;-88
2022/10/22 12:39:38;;;;;;;0.50;0.50;;;17.40;99.90;;;;;;4954727;28;20048;-92
2022/10/22 12:49:03;;;;;;;0.50;0.50;;;17.10;99.90;;;;;;5040190;27;20051;-88
2022/10/22 12:52:16;;;;;;;0.43;0.43;;;17.10;99.90;;;;;;5057789;27;20569;-87
2022/10/22 12:55:24;;;;;;;0.50;0.50;;;17.10;99.90;;;;;;5056596;27;20390;-89
2022/10/22 12:58:18;;;;;;;0.40;0.40;;;17.00;99.90;;;;;;5077851;27;20463;-87
2022/10/22 13:01:00;;;;;;;0.50;0.50;;;17.00;99.90;;;;;;5095920;27;20042;-87
2022/10/22 13:03:38;;;;;;;0.50;0.50;;;17.00;99.90;;;;;;5067256;27;20381;-86
2022/10/22 13:06:28;;;;;;;0.50;0.50;;;17.10;99.90;;;;;;5049317;27;20151;-85
2022/10/22 13:09:28;;;;;;;0.50;0.50;;;17.20;99.90;;;;;;5023669;27;20321;-87
2022/10/22 13:15:28;;;;;;;0.50;0.50;;;17.30;99.90;;;;;;5019703;27;20062;-88
2022/10/22 13:18:18;;;;;;;0.50;0.50;;;17.30;99.90;;;;;;5047940;27;20111;-88
2022/10/22 13:21:02;;;;;;;0.50;0.50;;;17.40;99.90;;;;;;5066731;27;20208;-87
2022/10/22 13:24:01;;;;;;;0.50;0.50;;;17.40;99.90;;;;;;5047791;27;20148;-86
2022/10/22 13:26:35;;;;;;;0.40;0.40;;;17.30;99.90;;;;;;5078267;27;20176;-85
2022/10/22 13:29:37;;;;;;;0.50;0.50;;;17.20;99.90;;;;;;5036062;27;20145;-84
2022/10/22 13:32:27;;;;;;;0.50;0.50;;;17.30;99.90;;;;;;5033636;27;20057;-89
2022/10/22 13:38:45;;;;;;;0.40;0.40;;;17.40;99.90;;;;;;5023757;28;20052;-93
2022/10/22 13:41:45;;;;;;;0.47;0.47;;;17.40;99.90;;;;;;5051889;27;20167;-88
2022/10/22 13:44:11;;;;;;;0.50;0.50;;;17.50;99.90;;;;;;5055867;27;20038;-82
2022/10/22 13:46:50;;;;;;;0.50;0.50;;;17.50;99.90;;;;;;5057690;27;20069;-84
2022/10/22 13:49:19;;;;;;;0.50;0.50;;;17.60;99.90;;;;;;5082830;27;20421;-89
2022/10/22 13:51:52;;;;;;;0.50;0.50;;;17.60;99.90;;;;;;5062495;27;20053;-86
2022/10/22 13:54:29;;;;;;;0.50;0.50;;;17.70;99.90;;;;;;5065527;27;20047;-89
2022/10/22 13:56:54;;;;;;;;;;;18.20;99.90;;;;;;5050215;27;20094;-88
2022/10/22 13:59:20;;;;;;;0.50;0.50;;;18.80;99.90;;;;;;5061599;27;19930;-87
2022/10/22 14:01:50;;;;;;;0.50;0.50;;;19.10;99.90;;;;;;5064208;27;20302;-83
2022/10/22 14:04:41;;;;;;;0.50;0.50;;;19.10;99.90;;;;;;5069586;27;20054;-87
2022/10/22 14:07:23;;;;;;;0.50;0.50;;;19.00;99.90;;;;;;5088576;27;20538;-89
2022/10/22 14:10:12;;;;;;;0.43;0.43;;;18.90;99.90;;;;;;5068853;27;20046;-91
2022/10/22 14:12:41;;;;;;;0.50;0.50;;;18.70;99.90;;;;;;5024532;27;20579;-88
2022/10/22 14:15:58;;;;;;;0.50;0.50;;;18.90;99.90;;;;;;5032458;27;20065;-88
2022/10/22 14:18:31;;;;;;;0.40;0.40;;;18.90;99.90;;;;;;4982332;28;20566;-87
2022/10/22 14:21:37;;;;;;;0.50;0.50;;;18.90;99.90;;;;;;5034346;27;20537;-89
2022/10/22 14:24:18;;;;;;;0.50;0.50;;;18.60;99.90;;;;;;5032279;27;20058;-90
2022/10/22 14:27:16;;;;;;;0.40;0.40;;;18.50;99.90;;;;;;5052738;27;20371;-90
2022/10/22 14:29:49;;;;;;;0.50;0.50;;;18.40;99.90;;;;;;5027891;27;20047;-88
2022/10/22 14:32:35;;;;;;;0.50;0.50;;;18.40;99.90;;;;;;5028107;27;20097;-86
2022/10/22 14:35:01;;;;;;;0.50;0.50;;;18.40;99.90;;;;;;5056340;27;20138;-85
2022/10/22 14:37:37;;;;;;;0.50;0.50;;;18.40;99.90;;;;;;5077008;27;20045;-86
2022/10/22 14:40:04;;;;;;;0.50;0.50;;;18.20;99.90;;;;;;5049674;27;20042;-83
2022/10/22 14:42:45;;;;;;;0.43;0.43;;;17.90;99.90;;;;;;5065693;27;20045;-84
2022/10/22 14:45:35;;;;;;;0.50;0.50;;;17.70;99.90;;;;;;5079856;27;20049;-89
2022/10/22 14:48:36;;;;;;;0.50;0.50;;;17.50;99.90;;;;;;5053102;27;20043;-96
2022/10/22 14:51:11;;;;;;;0.50;0.50;;;17.30;99.90;;;;;;5051062;27;20051;-90
2022/10/22 14:56:57;;;;;;;0.50;0.50;;;17.20;99.90;;;;;;5084701;27;20942;-86
2022/10/22 15:03:04;;;;;;;0.50;0.50;;;17.50;99.90;;;;;;5029746;28;20562;-87
2022/10/22 15:06:17;;;;;;;0.50;0.50;;;17.40;99.90;;;;;;5063030;27;20458;-89
2022/10/22 15:08:43;;;;;;;0.50;0.50;;;17.30;99.90;;;;;;5050034;27;20104;-88
2022/10/22 15:11:15;;;;;;;0.50;0.50;;;17.30;99.90;;;;;;5040154;27;20049;-87
2022/10/22 15:13:57;;;;;;;0.43;0.43;;;17.30;99.90;;;;;;5049296;27;20038;-92
2022/10/22 15:16:35;;;;;;;0.50;0.50;;;17.30;99.90;;;;;;5044067;27;21545;-88
2022/10/22 15:19:30;;;;;;;0.50;0.50;;;17.10;99.90;;;;;;5066260;27;20039;-86
2022/10/22 15:21:59;;;;;;;0.50;0.50;;;17.10;99.90;;;;;;5063362;27;20350;-87
2022/10/22 15:24:52;;;;;;;0.50;0.50;;;16.90;99.90;;;;;;5062416;27;20370;-92
2022/10/22 15:27:24;;;;;;;0.50;0.50;;;16.80;99.90;;;;;;5053308;27;20039;-87
2022/10/22 15:29:58;;;;;;;0.50;0.50;;;16.60;99.90;;;;;;5046295;27;20062;-91
2022/10/22 15:32:35;;;;;;;0.50;0.50;;;16.50;99.90;;;;;;5041845;27;20096;-91
2022/10/22 15:35:07;;;;;;;0.50;0.50;;;16.40;99.90;;;;;;5041994;27;20110;-86
2022/10/22 15:37:37;;;;;;;0.50;0.50;;;16.30;99.90;;;;;;5058396;27;20050;-85
2022/10/22 15:40:07;;;;;;;0.50;0.50;;;16.20;99.90;;;;;;5052842;27;20483;-85
2022/10/22 15:42:39;;;;;;;0.40;0.40;;;16.10;99.90;;;;;;5055112;27;20038;-86
2022/10/22 15:45:08;;;;;;;0.40;0.40;;;16.00;99.90;;;;;;5025757;27;20454;-85
2022/10/22 15:47:34;;;;;;;0.50;0.50;;;15.90;99.90;;;;;;5008695;27;20085;-86
2022/10/22 15:50:11;;;;;;;0.50;0.50;;;15.90;99.90;;;;;;5033836;27;20344;-86
2022/10/22 15:52:59;;;;;;;0.50;0.50;;;15.70;99.90;;;;;;5057763;27;20047;-86
2022/10/22 15:55:27;;;;;;;0.50;0.50;;;15.70;99.90;;;;;;5014641;27;20089;-85
2022/10/22 15:58:15;;;;;;;0.50;0.50;;;15.70;99.90;;;;;;5039324;27;20492;-86
2022/10/22 16:00:55;;;;;;;0.50;0.50;;;15.60;99.90;;;;;;5036306;28;20055;-85
2022/10/22 16:03:31;;;;;;;0.50;0.50;;;15.60;99.90;;;;;;5024335;28;20132;-85
2022/10/22 16:05:59;;;;;;;0.50;0.50;;;15.40;99.90;;;;;;5052483;28;20139;-85
2022/10/22 16:08:33;;;;;;;0.50;0.50;;;15.30;99.90;;;;;;5009611;28;20047;-85
2022/10/22 16:11:26;;;;;;;0.50;0.50;;;15.10;99.90;;;;;;5005964;28;20076;-86
2022/10/22 16:14:03;;;;;;;0.50;0.50;;;15.10;99.90;;;;;;5035981;28;20059;-86
2022/10/22 16:17:12;;;;;;;0.50;0.50;;;14.90;99.90;;;;;;5052262;28;20043;-85
2022/10/22 16:23:05;;;;;;;0.50;0.50;;;14.60;99.90;;;;;;5046441;27;20816;-84
2022/10/22 16:25:47;;;;;;;0.50;0.50;;;14.50;99.90;;;;;;5022938;27;20452;-83
2022/10/22 16:28:17;;;;;;;0.50;0.50;;;14.50;99.90;;;;;;5044654;27;20077;-85
2022/10/22 16:30:43;;;;;;;0.50;0.50;;;14.50;99.90;;;;;;5053242;27;20920;-83
2022/10/22 16:33:12;;;;;;;0.50;0.50;;;14.50;99.90;;;;;;5042105;27;20050;-85
2022/10/22 16:35:40;;;;;;;0.50;0.50;;;14.30;99.90;;;;;;5050568;27;20058;-83
2022/10/22 16:38:07;;;;;;;0.50;0.50;;;14.20;99.90;;;;;;5046747;27;20047;-84
2022/10/22 16:40:33;;;;;;;0.50;0.50;;;14.00;99.90;;;;;;5031184;27;20109;-82
2022/10/22 16:43:30;;;;;;;0.50;0.50;;;14.00;99.90;;;;;;5058151;27;20579;-85
2022/10/22 16:49:01;;;;;;;0.50;0.50;;;13.80;99.90;;;;;;5063148;27;20052;-85
2022/10/22 16:51:47;;;;;;;0.47;0.47;;;13.80;99.90;;;;;;5059226;27;20043;-86
2022/10/22 16:54:20;;;;;;;0.50;0.50;;;13.70;99.90;;;;;;5047095;27;20062;-84
2022/10/22 16:56:46;;;;;;;0.50;0.50;;;13.70;99.90;;;;;;5064790;27;20547;-83
2022/10/22 16:59:21;;;;;;;0.50;0.50;;;13.60;99.90;;;;;;5037588;27;20042;-84
2022/10/22 17:01:53;;;;;;;0.40;0.40;;;13.60;99.90;;;;;;5029669;27;20062;-84
2022/10/22 17:04:22;;;;;;;0.50;0.50;;;13.50;99.90;;;;;;5042708;27;20479;-84
2022/10/22 17:06:54;;;;;;;0.50;0.50;;;13.60;99.90;;;;;;5051767;27;20651;-84
2022/10/22 17:09:25;;;;;;;0.50;0.50;;;13.60;99.90;;;;;;5054370;27;20043;-83
2022/10/22 17:11:58;;;;;;;0.40;0.40;;;13.40;99.90;;;;;;5023292;27;20047;-84
2022/10/22 17:14:24;;;;;;;0.50;0.50;;;13.20;99.90;;;;;;5040518;27;20047;-84
2022/10/22 17:16:52;;;;;;;0.50;0.50;;;13.10;99.90;;;;;;5042861;27;20054;-84
2022/10/22 17:19:27;;;;;;;0.50;0.50;;;13.20;99.90;;;;;;5034488;27;20050;-83